Terminal Aerodrome Forecast
Issued by NWS

Home | Current Version | Previous Version | Text Only | Print | Product List | Glossary On
Versions: 1 2 3 4 5 6 7 8 9 10 11 12
525
FTUS43 KMPX 202339
TAFRWF
TAF
KRWF 202339Z 2100/2124 32004KT P6SM OVC120
     FM211300 02004KT P6SM OVC070
     FM212000 02008KT P6SM OVC050
     FM212300 02010KT P6SM OVC030=

USA.gov is the U.S. government's official web portal to all federal, state and local government web resources and services.